Time;durP1;ratioP1;P1;durP2;ratioP2;P2;SDS_P1;SDS_P2;PMS_P1;PMS_P2;Temp;Humidity;BMP_temperature;BMP_pressure;BME280_temperature;BME280_humidity;BME280_pressure;Samples;Min_cycle;Max_cycle;Signal;HPM_P1;HPM_P2
2021/12/06 15:01:31;;;;;;;8.73;7.93;;;14.30;66.00;;;;;;5056028;27;20402;-45
2021/12/06 15:04:07;;;;;;;8.68;7.78;;;14.70;69.80;;;;;;5056081;28;20033;-46
2021/12/06 15:06:35;;;;;;;8.77;7.68;;;14.90;70.40;;;;;;5056468;28;20386;-46
2021/12/06 15:09:00;;;;;;;;;;;15.10;70.90;;;;;;5056480;28;20076;-46
2021/12/06 15:11:28;;;;;;;7.40;6.68;;;15.20;71.30;;;;;;5054813;28;19905;-47
2021/12/06 15:13:56;;;;;;;7.60;6.70;;;15.30;71.60;;;;;;5056048;28;20033;-45
2021/12/06 15:16:23;;;;;;;7.10;6.40;;;15.50;71.70;;;;;;5056438;28;20035;-47
2021/12/06 15:18:50;;;;;;;6.63;5.88;;;15.60;72.10;;;;;;5055855;27;20151;-47
2021/12/06 15:21:18;;;;;;;6.35;5.75;;;15.70;72.30;;;;;;5056091;28;20409;-47
2021/12/06 15:23:48;;;;;;;6.32;5.40;;;15.80;72.40;;;;;;5041281;28;20034;-46
2021/12/06 15:26:19;;;;;;;6.30;5.63;;;16.00;72.40;;;;;;5036347;28;20090;-47
2021/12/06 15:28:46;;;;;;;5.60;5.10;;;16.20;72.60;;;;;;5068218;28;20026;-46
2021/12/06 15:31:12;;;;;;;5.50;4.93;;;16.30;72.70;;;;;;5036207;28;20030;-47
2021/12/06 15:33:39;;;;;;;5.72;4.88;;;16.50;72.90;;;;;;5035764;28;20034;-46
2021/12/06 15:36:06;;;;;;;;;;;16.60;72.80;;;;;;5036416;28;20028;-47
2021/12/06 15:38:38;;;;;;;4.03;3.63;;;16.80;72.90;;;;;;5035723;28;19909;-49
2021/12/06 15:41:11;;;;;;;4.20;3.80;;;17.00;72.60;;;;;;5035986;28;20033;-46
2021/12/06 15:43:40;;;;;;;4.00;3.60;;;17.10;72.60;;;;;;5035847;28;20030;-46
2021/12/06 15:46:06;;;;;;;3.42;3.13;;;17.30;72.30;;;;;;5036197;28;20030;-47
2021/12/06 15:48:36;;;;;;;3.27;2.97;;;17.40;72.30;;;;;;5035803;28;20022;-47
2021/12/06 15:51:10;;;;;;;3.10;2.80;;;17.60;72.20;;;;;;5055284;28;20095;-47
2021/12/06 15:53:47;;;;;;;3.03;2.72;;;17.70;72.10;;;;;;5124559;27;20099;-46
2021/12/06 15:56:13;;;;;;;3.03;2.72;;;17.80;72.10;;;;;;5160828;27;20035;-47
2021/12/06 15:58:40;;;;;;;2.80;2.55;;;18.00;72.00;;;;;;5160919;27;20102;-48
2021/12/06 16:01:08;;;;;;;2.90;2.60;;;18.10;71.80;;;;;;5154300;27;20047;-47
2021/12/06 16:03:36;;;;;;;2.63;2.40;;;18.30;71.80;;;;;;5146599;27;20031;-46
2021/12/06 16:06:04;;;;;;;2.45;2.25;;;18.50;71.60;;;;;;5146762;27;20041;-45
2021/12/06 16:08:33;;;;;;;2.55;2.20;;;18.60;71.60;;;;;;5146553;27;20030;-46
2021/12/06 16:11:01;;;;;;;2.35;2.15;;;18.50;71.20;;;;;;5146525;27;20030;-50
2021/12/06 16:13:34;;;;;;;2.80;2.50;;;18.50;71.10;;;;;;5146487;27;20027;-47
2021/12/06 16:16:00;;;;;;;2.30;2.10;;;18.50;70.90;;;;;;5146420;27;20471;-49
2021/12/06 16:18:28;;;;;;;2.38;2.17;;;18.50;70.70;;;;;;5146478;27;20038;-47
2021/12/06 16:20:59;;;;;;;2.08;1.90;;;18.50;70.40;;;;;;5043956;27;20036;-45
2021/12/06 16:23:31;;;;;;;2.28;2.08;;;18.60;70.20;;;;;;5040959;28;20033;-46
2021/12/06 16:25:58;;;;;;;2.15;1.95;;;18.60;70.10;;;;;;5041857;28;20045;-46
2021/12/06 16:28:24;;;;;;;;;;;18.60;69.70;;;;;;5040611;28;20034;-46
2021/12/06 16:30:55;;;;;;;2.28;2.08;;;18.70;69.60;;;;;;5040275;28;19920;-49
2021/12/06 16:33:47;;;;;;;2.10;1.90;;;18.70;69.10;;;;;;5041733;28;20025;-47
2021/12/06 16:36:31;;;;;;;2.08;1.88;;;18.70;69.00;;;;;;5041870;28;20089;-46
2021/12/06 16:39:10;;;;;;;2.42;2.22;;;18.70;68.70;;;;;;5041796;28;20064;-46
2021/12/06 16:41:36;;;;;;;2.65;2.00;;;18.80;68.50;;;;;;5041720;27;20045;-45
2021/12/06 16:44:07;;;;;;;2.53;2.33;;;18.70;68.20;;;;;;5041400;28;20022;-48
2021/12/06 16:46:41;;;;;;;2.92;1.95;;;18.80;68.10;;;;;;5041769;28;20519;-49
2021/12/06 16:49:07;;;;;;;2.10;1.90;;;18.80;67.80;;;;;;5040548;28;20045;-48
2021/12/06 16:51:36;;;;;;;2.13;1.92;;;18.80;67.70;;;;;;5041431;28;20554;-45
2021/12/06 16:54:14;;;;;;;2.05;1.85;;;18.80;67.40;;;;;;5041057;28;20097;-45
2021/12/06 16:56:41;;;;;;;1.80;1.70;;;18.80;67.80;;;;;;5040047;28;20085;-45
2021/12/06 16:59:16;;;;;;;1.80;1.70;;;18.90;67.60;;;;;;5068288;27;20031;-45
2021/12/06 17:01:42;;;;;;;1.70;1.60;;;18.90;67.60;;;;;;5145808;27;20039;-48
2021/12/06 17:04:13;;;;;;;1.98;1.77;;;18.90;67.30;;;;;;5144048;27;20038;-46
2021/12/06 17:06:40;;;;;;;2.25;2.05;;;18.90;67.20;;;;;;5068615;27;20413;-45
2021/12/06 17:09:06;;;;;;;2.17;1.98;;;18.90;67.50;;;;;;5039798;28;20032;-47
2021/12/06 17:11:33;;;;;;;2.03;1.83;;;18.90;67.00;;;;;;5041147;28;20038;-47
2021/12/06 17:14:02;;;;;;;1.83;1.70;;;18.90;66.90;;;;;;5040086;28;20026;-46
2021/12/06 17:16:32;;;;;;;2.00;1.80;;;18.90;67.00;;;;;;5041190;28;20580;-48
2021/12/06 17:19:27;;;;;;;1.63;1.52;;;19.00;67.40;;;;;;5038179;28;20127;-45
2021/12/06 17:22:16;;;;;;;1.85;1.70;;;19.00;67.30;;;;;;5029685;28;20029;-46
2021/12/06 17:24:47;;;;;;;1.60;1.50;;;19.00;67.10;;;;;;5020816;28;20107;-47
2021/12/06 17:27:27;;;;;;;1.95;1.73;;;19.00;67.00;;;;;;5021169;28;20061;-47
2021/12/06 17:29:53;;;;;;;2.05;1.85;;;19.00;67.00;;;;;;5092410;27;20035;-48
2021/12/06 17:32:19;;;;;;;1.67;1.58;;;19.00;66.90;;;;;;5144897;27;20027;-46
2021/12/06 17:34:46;;;;;;;2.20;1.80;;;19.00;66.90;;;;;;5144876;27;20019;-45
2021/12/06 17:37:12;;;;;;;2.00;1.80;;;19.00;66.90;;;;;;5144913;27;20034;-46
2021/12/06 17:39:42;;;;;;;1.90;1.67;;;19.00;66.80;;;;;;5144958;27;20039;-47
2021/12/06 17:42:12;;;;;;;1.92;1.70;;;19.00;66.90;;;;;;5144864;27;20365;-48
2021/12/06 17:44:39;;;;;;;1.70;1.60;;;19.00;66.50;;;;;;5144557;27;20038;-47
2021/12/06 17:47:05;;;;;;;2.13;1.90;;;19.00;66.70;;;;;;5144805;27;20110;-46
2021/12/06 17:49:33;;;;;;;1.63;1.52;;;19.00;66.60;;;;;;5101794;27;20026;-45
2021/12/06 17:52:00;;;;;;;2.00;1.80;;;19.00;66.60;;;;;;5040438;28;20041;-47
2021/12/06 17:54:28;;;;;;;1.55;1.45;;;19.00;66.50;;;;;;5020805;28;20037;-47
2021/12/06 17:56:55;;;;;;;1.75;1.65;;;19.00;66.40;;;;;;5020306;28;20394;-45
2021/12/06 17:59:22;;;;;;;1.67;1.52;;;19.00;66.80;;;;;;5064962;27;20045;-45
2021/12/06 18:01:58;;;;;;;1.60;1.50;;;19.00;66.60;;;;;;5144448;27;20094;-47
2021/12/06 18:04:27;;;;;;;1.40;1.30;;;19.00;66.90;;;;;;5144388;27;20023;-47
2021/12/06 18:06:53;;;;;;;1.70;1.60;;;19.10;66.90;;;;;;5144130;27;20060;-47
2021/12/06 18:09:24;;;;;;;1.70;1.60;;;19.10;66.80;;;;;;5144319;27;20903;-49
2021/12/06 18:11:51;;;;;;;1.50;1.40;;;19.00;66.60;;;;;;5144620;27;20096;-46
2021/12/06 18:14:18;;;;;;;1.67;1.50;;;19.00;66.60;;;;;;5143760;27;20058;-48
2021/12/06 18:16:45;;;;;;;1.40;1.30;;;19.00;66.90;;;;;;5143780;27;20399;-47
2021/12/06 18:19:13;;;;;;;1.60;1.50;;;19.00;66.50;;;;;;5143260;27;20023;-47
2021/12/06 18:21:39;;;;;;;1.75;1.65;;;19.00;66.70;;;;;;5143989;27;20039;-47
2021/12/06 18:24:06;;;;;;;1.38;1.27;;;19.00;66.50;;;;;;5143642;27;20023;-47
2021/12/06 18:26:34;;;;;;;1.42;1.33;;;19.00;66.30;;;;;;5125201;27;20035;-48
2021/12/06 18:29:00;;;;;;;1.80;1.60;;;19.00;66.40;;;;;;5129191;27;20027;-46
2021/12/06 18:31:27;;;;;;;1.50;1.33;;;19.00;66.20;;;;;;5164869;27;20030;-47
2021/12/06 18:33:53;;;;;;;1.40;1.30;;;19.00;66.30;;;;;;5164769;27;20015;-46
2021/12/06 18:36:21;;;;;;;1.40;1.30;;;19.00;66.30;;;;;;5164699;27;20027;-47
2021/12/06 18:38:54;;;;;;;1.70;1.48;;;19.00;66.30;;;;;;5164453;27;20033;-47
2021/12/06 18:41:22;;;;;;;1.52;1.42;;;19.00;66.20;;;;;;5164776;27;20035;-48
2021/12/06 18:44:09;;;;;;;1.45;1.35;;;19.00;66.20;;;;;;5164707;27;20026;-47
2021/12/06 18:46:36;;;;;;;1.70;1.50;;;19.00;66.20;;;;;;5164409;27;20038;-46
2021/12/06 18:49:02;;;;;;;1.58;1.48;;;19.00;66.20;;;;;;5163697;27;20031;-48
2021/12/06 18:51:29;;;;;;;1.40;1.30;;;19.00;66.30;;;;;;5179218;27;20030;-48
2021/12/06 18:53:57;;;;;;;1.92;1.50;;;19.00;66.30;;;;;;5164389;27;20915;-47
2021/12/06 18:56:23;;;;;;;1.50;1.40;;;19.00;66.20;;;;;;5164076;27;20015;-48
2021/12/06 18:58:49;;;;;;;1.40;1.30;;;19.00;66.20;;;;;;5165429;27;20039;-46
2021/12/06 19:01:17;;;;;;;1.55;1.40;;;18.90;66.10;;;;;;5067041;27;20060;-47
2021/12/06 19:03:44;;;;;;;1.60;1.50;;;19.00;66.10;;;;;;5059409;28;20048;-48
2021/12/06 19:06:10;;;;;;;1.50;1.40;;;18.90;66.20;;;;;;5059181;28;20032;-48
2021/12/06 19:08:36;;;;;;;1.50;1.40;;;19.00;66.20;;;;;;5059370;27;20025;-46
2021/12/06 19:11:02;;;;;;;1.88;1.70;;;18.90;66.10;;;;;;5059653;27;20057;-48
2021/12/06 19:13:29;;;;;;;1.52;1.42;;;18.90;66.20;;;;;;5059671;28;20025;-48
2021/12/06 19:16:05;;;;;;;1.80;1.25;;;18.90;66.20;;;;;;5059518;27;20777;-48
2021/12/06 19:18:31;;;;;;;1.20;1.10;;;18.90;66.10;;;;;;5059137;28;20051;-47
2021/12/06 19:20:57;;;;;;;1.60;1.50;;;18.90;66.20;;;;;;5058429;28;20096;-48
2021/12/06 19:23:25;;;;;;;1.50;1.40;;;18.90;66.10;;;;;;5059258;27;20033;-49
2021/12/06 19:25:53;;;;;;;1.70;1.55;;;18.90;66.20;;;;;;5059446;27;20021;-47
2021/12/06 19:28:24;;;;;;;1.35;1.25;;;18.90;66.20;;;;;;5058950;28;20037;-46
2021/12/06 19:30:52;;;;;;;1.65;1.48;;;18.90;66.20;;;;;;5059001;28;20048;-47
2021/12/06 19:33:18;;;;;;;1.98;1.67;;;18.90;66.40;;;;;;5059105;28;20024;-48
2021/12/06 19:35:46;;;;;;;2.03;1.45;;;18.90;66.50;;;;;;5059612;27;20029;-49
2021/12/06 19:38:12;;;;;;;1.45;1.35;;;18.90;66.30;;;;;;5061933;28;20036;-47
2021/12/06 19:40:39;;;;;;;1.58;1.48;;;18.80;66.20;;;;;;5062533;28;20142;-49
2021/12/06 19:43:06;;;;;;;1.85;1.40;;;18.80;66.30;;;;;;5062491;28;20025;-46
2021/12/06 19:45:35;;;;;;;1.70;1.60;;;18.80;66.30;;;;;;5062343;28;20043;-48
2021/12/06 19:48:02;;;;;;;1.58;1.48;;;18.80;66.20;;;;;;5062139;28;20033;-46
2021/12/06 19:50:30;;;;;;;;;;;18.80;66.20;;;;;;5130223;27;20045;-45
2021/12/06 19:52:57;;;;;;;1.52;1.40;;;18.80;66.50;;;;;;5061767;27;19931;-49
2021/12/06 19:55:23;;;;;;;1.67;1.30;;;18.80;66.40;;;;;;5062534;28;20029;-50
2021/12/06 19:57:49;;;;;;;2.22;1.73;;;18.90;66.70;;;;;;5061899;27;20029;-47
2021/12/06 20:00:17;;;;;;;1.97;1.43;;;18.90;67.30;;;;;;5114758;27;20116;-46
2021/12/06 20:02:43;;;;;;;1.60;1.48;;;18.90;67.70;;;;;;5167479;27;20042;-48
2021/12/06 20:05:10;;;;;;;1.60;1.25;;;19.00;68.20;;;;;;5167328;27;20030;-45
2021/12/06 20:07:36;;;;;;;1.38;1.27;;;19.10;68.70;;;;;;5167149;27;20424;-49
2021/12/06 20:10:05;;;;;;;1.53;1.10;;;19.20;69.00;;;;;;5167242;27;20561;-49
2021/12/06 20:12:31;;;;;;;2.05;1.30;;;19.30;69.30;;;;;;5167501;27;20047;-45
2021/12/06 20:14:57;;;;;;;1.73;1.27;;;19.40;69.40;;;;;;5167313;27;20129;-46
2021/12/06 20:17:23;;;;;;;2.08;1.35;;;19.60;69.50;;;;;;5166803;27;20018;-47
2021/12/06 20:19:49;;;;;;;1.77;1.40;;;19.70;69.60;;;;;;5166274;27;20031;-45
2021/12/06 20:22:16;;;;;;;1.35;1.20;;;19.80;69.70;;;;;;5167153;27;20023;-45
2021/12/06 20:24:42;;;;;;;1.45;1.08;;;19.90;69.80;;;;;;5167047;27;20022;-45
2021/12/06 20:27:10;;;;;;;1.30;1.00;;;20.10;69.90;;;;;;5167076;27;20384;-48
2021/12/06 20:29:36;;;;;;;0.90;0.80;;;20.20;69.90;;;;;;5166974;27;20047;-47
2021/12/06 20:32:02;;;;;;;1.27;0.90;;;20.40;69.90;;;;;;5150021;27;20446;-45
2021/12/06 20:34:29;;;;;;;1.33;1.10;;;20.50;69.80;;;;;;5146294;27;20083;-45
2021/12/06 20:36:55;;;;;;;0.82;0.70;;;20.60;69.70;;;;;;5157832;27;20019;-45
2021/12/06 20:39:21;;;;;;;4.07;1.08;;;20.80;69.80;;;;;;5157110;27;20027;-46
2021/12/06 20:41:47;;;;;;;2.13;0.90;;;20.90;69.60;;;;;;5144334;27;20031;-47
2021/12/06 20:44:13;;;;;;;0.93;0.90;;;21.00;69.50;;;;;;5144690;27;20029;-45
2021/12/06 20:46:40;;;;;;;1.38;0.90;;;21.00;69.50;;;;;;5159672;27;20060;-45
2021/12/06 20:49:07;;;;;;;0.83;0.73;;;21.00;69.50;;;;;;5160786;27;20038;-45
2021/12/06 20:51:33;;;;;;;;;;;21.00;69.30;;;;;;5161280;27;20282;-46
2021/12/06 20:54:10;;;;;;;0.98;0.90;;;21.00;69.00;;;;;;5161129;27;19974;-48
2021/12/06 20:56:36;;;;;;;0.80;0.70;;;21.10;68.90;;;;;;5160838;27;20078;-45
2021/12/06 20:59:04;;;;;;;1.30;0.70;;;21.20;68.80;;;;;;5161143;27;20030;-49
2021/12/06 21:01:30;;;;;;;0.80;0.63;;;21.30;68.80;;;;;;5161538;27;20030;-48
2021/12/06 21:03:56;;;;;;;0.80;0.73;;;21.50;68.80;;;;;;5125070;27;20027;-47
2021/12/06 21:06:23;;;;;;;0.77;0.75;;;21.50;68.60;;;;;;5161127;27;20026;-46
2021/12/06 21:08:49;;;;;;;0.75;0.70;;;21.50;68.50;;;;;;5160027;27;20066;-47
2021/12/06 21:11:28;;;;;;;0.60;0.60;;;21.50;68.40;;;;;;5161359;27;20031;-45
2021/12/06 21:16:36;;;;;;;1.05;0.85;;;21.50;67.90;;;;;;5160889;27;20030;-46
2021/12/06 21:19:11;;;;;;;0.80;0.75;;;21.60;67.80;;;;;;5160450;27;20027;-45
2021/12/06 21:21:38;;;;;;;0.93;0.90;;;21.70;67.60;;;;;;5162921;27;20132;-46
2021/12/06 21:24:05;;;;;;;0.82;0.70;;;21.70;67.60;;;;;;5165878;27;20030;-50
2021/12/06 21:26:32;;;;;;;0.80;0.60;;;21.70;67.50;;;;;;5165560;27;20027;-45
2021/12/06 21:28:58;;;;;;;1.42;0.80;;;21.70;67.30;;;;;;5165096;27;20026;-47
2021/12/06 21:31:24;;;;;;;0.75;0.75;;;21.70;67.10;;;;;;5161077;27;20574;-46
2021/12/06 21:33:51;;;;;;;0.98;0.82;;;21.80;67.20;;;;;;5163578;27;20082;-46
2021/12/06 21:36:17;;;;;;;1.23;0.90;;;21.80;67.00;;;;;;5165169;27;20050;-45
2021/12/06 21:38:43;;;;;;;1.33;0.93;;;21.90;66.90;;;;;;5163999;27;20629;-46
2021/12/06 21:41:09;;;;;;;1.25;0.85;;;21.90;66.90;;;;;;5165613;27;20114;-45
2021/12/06 21:43:36;;;;;;;1.58;0.90;;;21.90;66.80;;;;;;5165631;27;20027;-48
2021/12/06 21:46:03;;;;;;;0.70;0.70;;;22.00;66.60;;;;;;5165375;27;20574;-46
2021/12/06 21:48:29;;;;;;;0.82;0.80;;;21.90;66.40;;;;;;5165045;27;20041;-48
2021/12/06 21:50:56;;;;;;;1.27;0.93;;;21.90;66.30;;;;;;5164003;27;20042;-44
2021/12/06 21:53:22;;;;;;;1.00;0.80;;;21.90;66.40;;;;;;5165249;27;20023;-45
2021/12/06 21:55:49;;;;;;;1.00;0.85;;;21.90;66.10;;;;;;5165052;27;20045;-44
2021/12/06 21:58:15;;;;;;;0.70;0.60;;;22.00;66.20;;;;;;5164810;27;20027;-46
2021/12/06 22:00:46;;;;;;;0.90;0.77;;;22.10;66.20;;;;;;5164484;27;20047;-46
2021/12/06 22:03:22;;;;;;;1.33;0.80;;;22.10;66.10;;;;;;5165182;27;20035;-47
2021/12/06 22:05:49;;;;;;;1.00;0.70;;;22.00;66.00;;;;;;5164627;27;20188;-48
2021/12/06 22:08:16;;;;;;;0.77;0.68;;;22.00;65.80;;;;;;5164966;27;20086;-47
2021/12/06 22:10:43;;;;;;;0.80;0.80;;;22.10;65.80;;;;;;5164460;27;20038;-46
2021/12/06 22:13:10;;;;;;;1.25;1.00;;;22.10;65.80;;;;;;5164241;27;20022;-45
2021/12/06 22:15:36;;;;;;;0.80;0.80;;;22.10;65.80;;;;;;5164883;27;20052;-45
2021/12/06 22:18:02;;;;;;;0.77;0.50;;;22.10;65.70;;;;;;5164598;27;20121;-47
2021/12/06 22:20:29;;;;;;;0.80;0.80;;;22.10;65.80;;;;;;5157530;27;20066;-44
2021/12/06 22:22:58;;;;;;;1.05;0.98;;;22.10;65.70;;;;;;5164128;27;20030;-46
2021/12/06 22:25:25;;;;;;;1.67;0.95;;;22.10;65.70;;;;;;5163974;27;20026;-46
2021/12/06 22:27:51;;;;;;;0.70;0.70;;;22.10;65.60;;;;;;5164661;27;20037;-45
2021/12/06 22:30:18;;;;;;;0.98;0.80;;;22.10;65.50;;;;;;5164154;27;20038;-47
2021/12/06 22:32:46;;;;;;;1.42;0.93;;;22.10;65.40;;;;;;5163730;27;20023;-46
2021/12/06 22:35:12;;;;;;;0.80;0.80;;;22.10;65.50;;;;;;5162739;27;20035;-46
2021/12/06 22:37:39;;;;;;;0.80;0.70;;;22.10;65.40;;;;;;5163596;27;20022;-46
2021/12/06 22:40:06;;;;;;;2.67;0.90;;;22.10;65.40;;;;;;5164022;27;20158;-46
2021/12/06 22:42:32;;;;;;;1.27;1.05;;;22.10;65.50;;;;;;5164284;27;20133;-45
2021/12/06 22:44:58;;;;;;;0.77;0.63;;;22.10;65.40;;;;;;5163985;27;20042;-44
2021/12/06 22:47:24;;;;;;;0.77;0.77;;;22.10;65.40;;;;;;5172797;27;20026;-48
2021/12/06 22:49:50;;;;;;;1.23;1.00;;;22.00;65.30;;;;;;5165691;27;20039;-47
2021/12/06 22:52:17;;;;;;;0.80;0.80;;;22.00;65.30;;;;;;5163775;27;20038;-47
2021/12/06 22:54:43;;;;;;;1.58;0.98;;;22.10;65.30;;;;;;5163723;27;20022;-46
2021/12/06 22:57:09;;;;;;;1.05;0.70;;;22.10;65.10;;;;;;5163701;27;20498;-44
2021/12/06 22:59:35;;;;;;;1.13;0.80;;;22.10;65.30;;;;;;5140151;27;20074;-46
2021/12/06 23:02:03;;;;;;;1.58;1.00;;;22.10;65.20;;;;;;5058432;28;20068;-45
2021/12/06 23:04:29;;;;;;;0.65;0.63;;;22.10;65.10;;;;;;5057342;28;20032;-47
2021/12/06 23:06:56;;;;;;;1.67;0.82;;;22.10;65.10;;;;;;5058816;27;20119;-46
2021/12/06 23:09:22;;;;;;;0.80;0.80;;;22.00;65.20;;;;;;5058498;28;20052;-45
2021/12/06 23:11:48;;;;;;;0.80;0.80;;;22.00;65.10;;;;;;5060272;28;20037;-46
2021/12/06 23:14:14;;;;;;;0.93;0.73;;;22.00;65.10;;;;;;5062240;27;20033;-45
2021/12/06 23:16:42;;;;;;;1.53;0.70;;;22.00;65.10;;;;;;5061434;28;20541;-45
2021/12/06 23:19:09;;;;;;;1.63;0.90;;;22.00;65.20;;;;;;5058138;28;20025;-47
2021/12/06 23:21:37;;;;;;;0.70;0.70;;;22.00;65.10;;;;;;5044827;28;20026;-47
2021/12/06 23:24:05;;;;;;;1.10;0.82;;;22.00;65.10;;;;;;5061872;28;20037;-46
2021/12/06 23:26:31;;;;;;;1.45;1.00;;;21.90;65.00;;;;;;5062275;27;20037;-44
2021/12/06 23:28:57;;;;;;;1.97;0.90;;;22.00;65.00;;;;;;5061801;28;20132;-45
2021/12/06 23:31:24;;;;;;;1.10;0.90;;;21.90;64.90;;;;;;5061713;27;20136;-45
2021/12/06 23:33:51;;;;;;;1.00;0.80;;;21.90;65.00;;;;;;5061764;28;20021;-46
2021/12/06 23:36:21;;;;;;;1.38;0.90;;;21.90;65.10;;;;;;5063044;27;20446;-47
2021/12/06 23:46:49;;;;;;;1.85;1.00;;;21.80;65.00;;;;;;5108718;27;20107;-46
2021/12/06 23:49:18;;;;;;;1.40;0.85;;;21.80;65.00;;;;;;5084054;27;20033;-49
2021/12/06 23:51:46;;;;;;;0.82;0.70;;;21.80;65.10;;;;;;5062109;28;20033;-48
2021/12/06 23:54:20;;;;;;;1.55;1.15;;;21.80;65.00;;;;;;5061522;28;20032;-47
2021/12/06 23:56:47;;;;;;;3.55;0.93;;;21.70;65.00;;;;;;5098606;27;20131;-48
2021/12/06 23:59:15;;;;;;;1.30;0.77;;;21.70;65.10;;;;;;5102637;27;20044;-47
